sensor_id;sensor_type;location;lat;lon;timestamp;pressure;altitude;pressure_sealevel;temperature;humidity
77303;BME280;66363;49.828;7.856;2022-12-26T00:00:07;99819.47;;;19.84;44.44
77303;BME280;66363;49.828;7.856;2022-12-26T00:02:33;99824.03;;;19.83;44.47
77303;BME280;66363;49.828;7.856;2022-12-26T00:05:00;99821.16;;;19.85;44.47
77303;BME280;66363;49.828;7.856;2022-12-26T00:07:26;99822.84;;;19.86;44.42
77303;BME280;66363;49.828;7.856;2022-12-26T00:09:51;99817.44;;;19.86;44.49
77303;BME280;66363;49.828;7.856;2022-12-26T00:12:17;99820.13;;;19.86;44.49
77303;BME280;66363;49.828;7.856;2022-12-26T00:14:43;99813.75;;;19.87;44.47
77303;BME280;66363;49.828;7.856;2022-12-26T00:17:08;99822.66;;;19.87;44.48
77303;BME280;66363;49.828;7.856;2022-12-26T00:19:34;99826.19;;;19.88;44.57
77303;BME280;66363;49.828;7.856;2022-12-26T00:22:01;99824.34;;;19.88;44.53
77303;BME280;66363;49.828;7.856;2022-12-26T00:24:26;99825.19;;;19.89;44.57
77303;BME280;66363;49.828;7.856;2022-12-26T00:26:54;99817.09;;;19.89;44.46
77303;BME280;66363;49.828;7.856;2022-12-26T00:29:20;99822.47;;;19.89;44.51
77303;BME280;66363;49.828;7.856;2022-12-26T00:31:45;99820.63;;;19.89;44.50
77303;BME280;66363;49.828;7.856;2022-12-26T00:34:11;99816.09;;;19.90;44.60
77303;BME280;66363;49.828;7.856;2022-12-26T00:36:37;99816.09;;;19.90;44.50
77303;BME280;66363;49.828;7.856;2022-12-26T00:39:03;99818.78;;;19.90;44.40
77303;BME280;66363;49.828;7.856;2022-12-26T00:41:29;99805.31;;;19.90;44.44
77303;BME280;66363;49.828;7.856;2022-12-26T00:43:56;99807.00;;;19.91;44.43
77303;BME280;66363;49.828;7.856;2022-12-26T00:46:21;99810.53;;;19.91;44.54
77303;BME280;66363;49.828;7.856;2022-12-26T00:48:47;99814.06;;;19.92;44.48
77303;BME280;66363;49.828;7.856;2022-12-26T00:51:12;99815.06;;;19.91;44.56
77303;BME280;66363;49.828;7.856;2022-12-26T00:53:38;99815.75;;;19.93;44.32
77303;BME280;66363;49.828;7.856;2022-12-26T00:56:06;99820.28;;;19.92;44.52
77303;BME280;66363;49.828;7.856;2022-12-26T00:58:31;99829.19;;;19.93;44.47
77303;BME280;66363;49.828;7.856;2022-12-26T01:01:05;99821.13;;;19.93;44.45
77303;BME280;66363;49.828;7.856;2022-12-26T01:03:31;99830.88;;;19.94;44.44
77303;BME280;66363;49.828;7.856;2022-12-26T01:05:57;99830.88;;;19.94;44.29
77303;BME280;66363;49.828;7.856;2022-12-26T01:08:23;99828.19;;;19.94;44.59
77303;BME280;66363;49.828;7.856;2022-12-26T01:10:49;99820.13;;;19.94;44.50
77303;BME280;66363;49.828;7.856;2022-12-26T01:13:16;99824.66;;;19.93;44.42
77303;BME280;66363;49.828;7.856;2022-12-26T01:15:47;99822.63;;;19.95;44.44
77303;BME280;66363;49.828;7.856;2022-12-26T01:18:12;99805.63;;;19.95;44.47
77303;BME280;66363;49.828;7.856;2022-12-26T01:20:38;99815.56;;;19.94;44.39
77303;BME280;66363;49.828;7.856;2022-12-26T01:23:03;99843.34;;;19.95;44.58
77303;BME280;66363;49.828;7.856;2022-12-26T01:25:29;99845.03;;;19.96;44.47
77303;BME280;66363;49.828;7.856;2022-12-26T01:27:55;99848.91;;;19.93;44.53
77303;BME280;66363;49.828;7.856;2022-12-26T01:30:22;99855.78;;;19.96;44.50
77303;BME280;66363;49.828;7.856;2022-12-26T01:32:47;99874.47;;;19.97;44.41
77303;BME280;66363;49.828;7.856;2022-12-26T01:35:13;99865.56;;;19.97;44.47
77303;BME280;66363;49.828;7.856;2022-12-26T01:37:38;99850.22;;;19.97;44.43
77303;BME280;66363;49.828;7.856;2022-12-26T01:40:04;99860.16;;;19.97;44.34
77303;BME280;66363;49.828;7.856;2022-12-26T01:42:36;99865.56;;;19.97;44.47
77303;BME280;66363;49.828;7.856;2022-12-26T01:45:05;99868.25;;;19.97;44.54
77303;BME280;66363;49.828;7.856;2022-12-26T01:47:40;99878.00;;;19.98;44.34
77303;BME280;66363;49.828;7.856;2022-12-26T01:50:16;99880.69;;;19.98;44.34
77303;BME280;66363;49.828;7.856;2022-12-26T01:52:46;99866.22;;;19.99;44.36
77303;BME280;66363;49.828;7.856;2022-12-26T01:55:15;99871.78;;;19.97;44.48
77303;BME280;66363;49.828;7.856;2022-12-26T01:57:45;99872.63;;;19.98;44.54
77303;BME280;66363;49.828;7.856;2022-12-26T02:00:13;99885.06;;;19.99;44.44
77303;BME280;66363;49.828;7.856;2022-12-26T02:02:41;99881.53;;;19.98;44.48
77303;BME280;66363;49.828;7.856;2022-12-26T02:05:07;99875.13;;;19.99;44.49
77303;BME280;66363;49.828;7.856;2022-12-26T02:07:34;99880.53;;;19.99;44.47
77303;BME280;66363;49.828;7.856;2022-12-26T02:10:01;99894.00;;;19.99;44.50
77303;BME280;66363;49.828;7.856;2022-12-26T02:12:29;99898.38;;;20.01;44.43
77303;BME280;66363;49.828;7.856;2022-12-26T02:14:56;99892.97;;;20.01;44.63
77303;BME280;66363;49.828;7.856;2022-12-26T02:17:22;99892.97;;;20.01;44.45
77303;BME280;66363;49.828;7.856;2022-12-26T02:19:56;99895.69;;;20.01;44.53
77303;BME280;66363;49.828;7.856;2022-12-26T02:22:59;99908.31;;;20.00;44.42
77303;BME280;66363;49.828;7.856;2022-12-26T02:25:44;99912.66;;;20.01;44.45
77303;BME280;66363;49.828;7.856;2022-12-26T02:28:47;99902.72;;;20.02;44.72
77303;BME280;66363;49.828;7.856;2022-12-26T02:31:20;99903.56;;;20.02;44.52
77303;BME280;66363;49.828;7.856;2022-12-26T02:33:59;99893.78;;;20.01;44.42
77303;BME280;66363;49.828;7.856;2022-12-26T02:36:41;99894.63;;;20.02;44.42
77303;BME280;66363;49.828;7.856;2022-12-26T02:39:22;99883.84;;;20.02;44.51
77303;BME280;66363;49.828;7.856;2022-12-26T02:42:01;99882.00;;;20.02;44.41
77303;BME280;66363;49.828;7.856;2022-12-26T02:44:35;99886.53;;;20.02;44.30
77303;BME280;66363;49.828;7.856;2022-12-26T02:47:10;99881.16;;;20.02;44.48
77303;BME280;66363;49.828;7.856;2022-12-26T02:50:00;99891.09;;;20.01;44.43
77303;BME280;66363;49.828;7.856;2022-12-26T02:52:33;99886.53;;;20.02;44.41
77303;BME280;66363;49.828;7.856;2022-12-26T02:55:08;99883.84;;;20.02;44.42
77303;BME280;66363;49.828;7.856;2022-12-26T02:57:41;99884.69;;;20.02;44.40
77303;BME280;66363;49.828;7.856;2022-12-26T03:00:13;99892.78;;;20.02;44.55
77303;BME280;66363;49.828;7.856;2022-12-26T03:02:48;99892.78;;;20.02;44.43
77303;BME280;66363;49.828;7.856;2022-12-26T03:05:20;99869.38;;;20.03;44.39
77303;BME280;66363;49.828;7.856;2022-12-26T03:07:47;99880.16;;;20.03;44.37
77303;BME280;66363;49.828;7.856;2022-12-26T03:10:14;99902.53;;;20.03;44.41
77303;BME280;66363;49.828;7.856;2022-12-26T03:12:46;99887.38;;;20.02;44.50
77303;BME280;66363;49.828;7.856;2022-12-26T03:15:17;99891.75;;;20.03;44.64
77303;BME280;66363;49.828;7.856;2022-12-26T03:17:47;99881.00;;;20.03;44.50
77303;BME280;66363;49.828;7.856;2022-12-26T03:20:16;99894.47;;;20.03;44.51
77303;BME280;66363;49.828;7.856;2022-12-26T03:22:45;99893.63;;;20.03;44.50
77303;BME280;66363;49.828;7.856;2022-12-26T03:25:30;99903.38;;;20.04;44.37
77303;BME280;66363;49.828;7.856;2022-12-26T03:28:02;99896.31;;;20.03;44.22
77303;BME280;66363;49.828;7.856;2022-12-26T03:30:28;99887.22;;;20.04;44.43
77303;BME280;66363;49.828;7.856;2022-12-26T03:32:55;99878.28;;;20.03;44.28
77303;BME280;66363;49.828;7.856;2022-12-26T03:35:21;99869.38;;;20.03;44.34
77303;BME280;66363;49.828;7.856;2022-12-26T03:37:52;99856.75;;;20.03;44.38
77303;BME280;66363;49.828;7.856;2022-12-26T03:40:39;99855.91;;;20.03;44.27
77303;BME280;66363;49.828;7.856;2022-12-26T03:43:18;99868.34;;;20.04;44.36
77303;BME280;66363;49.828;7.856;2022-12-26T03:45:49;99859.44;;;20.03;44.48
77303;BME280;66363;49.828;7.856;2022-12-26T03:48:26;99864.81;;;20.03;44.26
77303;BME280;66363;49.828;7.856;2022-12-26T03:50:58;99860.28;;;20.04;44.27
77303;BME280;66363;49.828;7.856;2022-12-26T03:53:32;99864.00;;;20.03;44.39
77303;BME280;66363;49.828;7.856;2022-12-26T03:56:05;99862.97;;;20.04;44.73
77303;BME280;66363;49.828;7.856;2022-12-26T03:58:36;99871.06;;;20.04;44.46
77303;BME280;66363;49.828;7.856;2022-12-26T04:01:09;99879.97;;;20.04;44.41
77303;BME280;66363;49.828;7.856;2022-12-26T04:03:41;99877.28;;;20.04;44.31
77303;BME280;66363;49.828;7.856;2022-12-26T04:06:16;99874.75;;;20.03;44.38
77303;BME280;66363;49.828;7.856;2022-12-26T04:08:46;99876.44;;;20.04;44.30
77303;BME280;66363;49.828;7.856;2022-12-26T04:11:15;99885.38;;;20.04;44.41
77303;BME280;66363;49.828;7.856;2022-12-26T04:13:48;99882.66;;;20.04;44.38
77303;BME280;66363;49.828;7.856;2022-12-26T04:16:31;99895.28;;;20.04;44.28
77303;BME280;66363;49.828;7.856;2022-12-26T04:21:46;99906.91;;;20.04;44.33
77303;BME280;66363;49.828;7.856;2022-12-26T04:24:17;99906.91;;;20.04;44.33
77303;BME280;66363;49.828;7.856;2022-12-26T04:26:48;99892.59;;;20.04;44.33
77303;BME280;66363;49.828;7.856;2022-12-26T04:29:15;99894.47;;;20.03;44.49
77303;BME280;66363;49.828;7.856;2022-12-26T04:31:45;99892.59;;;20.04;44.38
77303;BME280;66363;49.828;7.856;2022-12-26T04:34:14;99889.91;;;20.04;44.43
77303;BME280;66363;49.828;7.856;2022-12-26T04:36:47;99888.91;;;20.05;44.24
77303;BME280;66363;49.828;7.856;2022-12-26T04:39:15;99890.75;;;20.04;44.36
77303;BME280;66363;49.828;7.856;2022-12-26T04:41:44;99891.59;;;20.05;44.23
77303;BME280;66363;49.828;7.856;2022-12-26T04:44:12;99893.44;;;20.04;44.21
77303;BME280;66363;49.828;7.856;2022-12-26T04:46:41;99884.69;;;20.02;44.52
77303;BME280;66363;49.828;7.856;2022-12-26T04:49:10;99901.53;;;20.04;44.30
77303;BME280;66363;49.828;7.856;2022-12-26T04:51:37;99899.84;;;20.03;44.29
77303;BME280;66363;49.828;7.856;2022-12-26T04:54:04;99892.59;;;20.04;44.30
77303;BME280;66363;49.828;7.856;2022-12-26T04:56:30;99904.22;;;20.04;44.31
77303;BME280;66363;49.828;7.856;2022-12-26T04:58:56;99893.44;;;20.04;44.26
77303;BME280;66363;49.828;7.856;2022-12-26T05:01:21;99889.06;;;20.03;44.28
77303;BME280;66363;49.828;7.856;2022-12-26T05:03:47;99898.00;;;20.04;44.45
77303;BME280;66363;49.828;7.856;2022-12-26T05:06:12;99904.22;;;20.04;44.46
77303;BME280;66363;49.828;7.856;2022-12-26T05:08:41;99902.38;;;20.05;44.27
77303;BME280;66363;49.828;7.856;2022-12-26T05:11:07;99893.44;;;20.04;44.30
77303;BME280;66363;49.828;7.856;2022-12-26T05:13:33;99883.69;;;20.03;44.44
77303;BME280;66363;49.828;7.856;2022-12-26T05:15:58;99884.53;;;20.04;44.37
77303;BME280;66363;49.828;7.856;2022-12-26T05:18:24;99888.91;;;20.05;44.24
77303;BME280;66363;49.828;7.856;2022-12-26T05:20:49;99886.38;;;20.03;44.39
77303;BME280;66363;49.828;7.856;2022-12-26T05:23:17;99892.59;;;20.04;44.35
77303;BME280;66363;49.828;7.856;2022-12-26T05:25:45;99884.53;;;20.04;44.47
77303;BME280;66363;49.828;7.856;2022-12-26T05:28:13;99872.91;;;20.03;44.50
77303;BME280;66363;49.828;7.856;2022-12-26T05:30:39;99885.53;;;20.03;44.38
77303;BME280;66363;49.828;7.856;2022-12-26T05:33:05;99884.53;;;20.04;44.36
77303;BME280;66363;49.828;7.856;2022-12-26T05:35:31;99882.84;;;20.03;44.37
77303;BME280;66363;49.828;7.856;2022-12-26T05:37:57;99897.16;;;20.03;44.51
77303;BME280;66363;49.828;7.856;2022-12-26T05:40:22;99913.31;;;20.03;44.38
77303;BME280;66363;49.828;7.856;2022-12-26T05:42:49;99922.22;;;20.04;44.50
77303;BME280;66363;49.828;7.856;2022-12-26T05:45:15;99912.31;;;20.04;44.40
77303;BME280;66363;49.828;7.856;2022-12-26T05:47:40;99915.00;;;20.04;44.38
77303;BME280;66363;49.828;7.856;2022-12-26T05:50:06;99919.53;;;20.04;44.32
77303;BME280;66363;49.828;7.856;2022-12-26T05:52:32;99923.06;;;20.04;44.52
77303;BME280;66363;49.828;7.856;2022-12-26T05:54:57;99923.91;;;20.05;44.71
77303;BME280;66363;49.828;7.856;2022-12-26T05:57:23;99923.91;;;20.05;44.56
77303;BME280;66363;49.828;7.856;2022-12-26T05:59:50;99934.69;;;20.05;44.59
77303;BME280;66363;49.828;7.856;2022-12-26T06:02:16;99950.84;;;20.05;44.55
77303;BME280;66363;49.828;7.856;2022-12-26T06:04:41;99952.72;;;20.04;44.78
77303;BME280;66363;49.828;7.856;2022-12-26T06:07:07;99960.63;;;20.06;44.76
77303;BME280;66363;49.828;7.856;2022-12-26T06:09:32;99964.16;;;20.06;44.70
77303;BME280;66363;49.828;7.856;2022-12-26T06:11:58;99948.00;;;20.06;44.58
77303;BME280;66363;49.828;7.856;2022-12-26T06:14:23;99949.84;;;20.06;44.54
77303;BME280;66363;49.828;7.856;2022-12-26T06:16:50;99937.22;;;20.06;44.76
77303;BME280;66363;49.828;7.856;2022-12-26T06:19:16;99941.75;;;20.06;44.86
77303;BME280;66363;49.828;7.856;2022-12-26T06:21:42;99939.06;;;20.06;44.65
77303;BME280;66363;49.828;7.856;2022-12-26T06:24:07;99938.06;;;20.07;44.97
77303;BME280;66363;49.828;7.856;2022-12-26T06:26:33;99930.81;;;20.07;45.11
77303;BME280;66363;49.828;7.856;2022-12-26T06:28:59;99941.59;;;20.07;44.83
77303;BME280;66363;49.828;7.856;2022-12-26T06:31:24;99938.91;;;20.07;44.83
77303;BME280;66363;49.828;7.856;2022-12-26T06:33:54;99937.22;;;20.06;44.96
77303;BME280;66363;49.828;7.856;2022-12-26T06:36:22;99941.59;;;20.07;45.08
77303;BME280;66363;49.828;7.856;2022-12-26T06:38:48;99936.19;;;20.07;44.90
77303;BME280;66363;49.828;7.856;2022-12-26T06:41:14;99941.59;;;20.07;45.21
77303;BME280;66363;49.828;7.856;2022-12-26T06:43:40;99952.38;;;20.07;45.26
77303;BME280;66363;49.828;7.856;2022-12-26T06:46:09;99938.06;;;20.07;45.21
77303;BME280;66363;49.828;7.856;2022-12-26T06:48:35;99944.28;;;20.07;45.10
77303;BME280;66363;49.828;7.856;2022-12-26T06:51:04;99953.22;;;20.08;45.14
77303;BME280;66363;49.828;7.856;2022-12-26T06:53:29;99943.28;;;20.08;45.18
77303;BME280;66363;49.828;7.856;2022-12-26T06:56:04;99947.66;;;20.09;45.27
77303;BME280;66363;49.828;7.856;2022-12-26T06:58:30;99954.88;;;20.09;45.20
77303;BME280;66363;49.828;7.856;2022-12-26T07:01:03;99961.13;;;20.09;45.50
77303;BME280;66363;49.828;7.856;2022-12-26T07:03:28;99971.00;;;19.61;45.17
77303;BME280;66363;49.828;7.856;2022-12-26T07:05:54;99973.94;;;18.35;47.02
77303;BME280;66363;49.828;7.856;2022-12-26T07:08:21;99991.94;;;18.09;46.71
77303;BME280;66363;49.828;7.856;2022-12-26T07:10:46;99992.22;;;18.31;46.51
77303;BME280;66363;49.828;7.856;2022-12-26T07:13:12;99996.19;;;17.68;47.53
77303;BME280;66363;49.828;7.856;2022-12-26T07:15:37;100013.00;;;16.99;50.18
77303;BME280;66363;49.828;7.856;2022-12-26T07:18:03;100012.78;;;17.27;49.34
77303;BME280;66363;49.828;7.856;2022-12-26T07:20:29;100030.56;;;17.28;50.38
77303;BME280;66363;49.828;7.856;2022-12-26T07:22:54;100031.19;;;17.05;51.23
77303;BME280;66363;49.828;7.856;2022-12-26T07:25:21;100030.72;;;17.27;50.31
77303;BME280;66363;49.828;7.856;2022-12-26T07:27:47;100031.91;;;17.86;49.11
77303;BME280;66363;49.828;7.856;2022-12-26T07:30:13;100033.34;;;18.32;47.99
77303;BME280;66363;49.828;7.856;2022-12-26T07:32:38;100035.22;;;18.66;47.23
77303;BME280;66363;49.828;7.856;2022-12-26T07:35:04;100025.56;;;18.89;46.43
77303;BME280;66363;49.828;7.856;2022-12-26T07:37:30;100030.97;;;19.05;46.25
77303;BME280;66363;49.828;7.856;2022-12-26T07:39:56;100035.38;;;19.14;46.04
77303;BME280;66363;49.828;7.856;2022-12-26T07:42:23;100035.19;;;19.24;45.74
77303;BME280;66363;49.828;7.856;2022-12-26T07:44:48;100030.00;;;19.30;45.68
77303;BME280;66363;49.828;7.856;2022-12-26T07:47:14;100018.72;;;19.35;45.59
77303;BME280;66363;49.828;7.856;2022-12-26T07:49:40;100014.72;;;19.39;45.50
77303;BME280;66363;49.828;7.856;2022-12-26T07:52:05;100008.16;;;19.42;45.25
77303;BME280;66363;49.828;7.856;2022-12-26T07:54:31;99991.66;;;19.45;45.04
77303;BME280;66363;49.828;7.856;2022-12-26T07:56:56;99980.56;;;19.48;45.19
77303;BME280;66363;49.828;7.856;2022-12-26T07:59:23;99970.66;;;19.48;45.16
77303;BME280;66363;49.828;7.856;2022-12-26T08:01:49;99990.00;;;19.52;45.25
77303;BME280;66363;49.828;7.856;2022-12-26T08:04:14;100029.34;;;19.53;45.14
77303;BME280;66363;49.828;7.856;2022-12-26T08:06:40;100008.50;;;19.55;45.25
77303;BME280;66363;49.828;7.856;2022-12-26T08:09:05;100017.25;;;19.57;45.20
77303;BME280;66363;49.828;7.856;2022-12-26T08:11:33;99991.84;;;19.59;45.40
77303;BME280;66363;49.828;7.856;2022-12-26T08:13:59;99996.22;;;19.60;45.60
77303;BME280;66363;49.828;7.856;2022-12-26T08:16:27;99998.75;;;19.62;45.49
77303;BME280;66363;49.828;7.856;2022-12-26T08:18:52;99999.44;;;19.64;45.45
77303;BME280;66363;49.828;7.856;2022-12-26T08:21:18;100007.50;;;19.64;45.20
77303;BME280;66363;49.828;7.856;2022-12-26T08:23:43;100008.19;;;19.66;45.57
77303;BME280;66363;49.828;7.856;2022-12-26T08:26:10;100000.09;;;19.66;45.40
77303;BME280;66363;49.828;7.856;2022-12-26T08:28:37;99995.38;;;19.68;45.48
77303;BME280;66363;49.828;7.856;2022-12-26T08:31:04;99983.59;;;19.69;45.23
77303;BME280;66363;49.828;7.856;2022-12-26T08:33:32;100009.53;;;19.70;45.58
77303;BME280;66363;49.828;7.856;2022-12-26T08:36:00;100014.91;;;19.70;45.18
77303;BME280;66363;49.828;7.856;2022-12-26T08:38:26;100008.66;;;19.53;45.25
77303;BME280;66363;49.828;7.856;2022-12-26T08:40:53;100022.59;;;19.24;45.71
77303;BME280;66363;49.828;7.856;2022-12-26T08:43:18;100041.56;;;18.30;47.79
77303;BME280;66363;49.828;7.856;2022-12-26T08:45:44;100034.88;;;18.35;47.90
77303;BME280;66363;49.828;7.856;2022-12-26T08:48:10;100046.41;;;18.27;48.16
77303;BME280;66363;49.828;7.856;2022-12-26T08:50:37;100063.13;;;18.13;48.10
77303;BME280;66363;49.828;7.856;2022-12-26T08:53:02;100066.63;;;16.71;51.75
77303;BME280;66363;49.828;7.856;2022-12-26T08:55:28;100066.41;;;16.55;52.42
77303;BME280;66363;49.828;7.856;2022-12-26T08:57:54;100070.88;;;16.27;52.85
77303;BME280;66363;49.828;7.856;2022-12-26T09:00:19;100072.03;;;16.24;53.73
77303;BME280;66363;49.828;7.856;2022-12-26T09:02:46;100080.06;;;16.15;53.73
77303;BME280;66363;49.828;7.856;2022-12-26T09:05:12;100080.78;;;16.17;53.50
77303;BME280;66363;49.828;7.856;2022-12-26T09:07:39;100083.25;;;15.81;54.67
77303;BME280;66363;49.828;7.856;2022-12-26T09:10:05;100084.91;;;16.02;54.10
77303;BME280;66363;49.828;7.856;2022-12-26T09:12:31;100081.53;;;16.00;54.50
77303;BME280;66363;49.828;7.856;2022-12-26T09:14:56;100077.53;;;16.23;53.97
77303;BME280;66363;49.828;7.856;2022-12-26T09:17:22;100080.72;;;16.36;53.40
77303;BME280;66363;49.828;7.856;2022-12-26T09:19:48;100081.03;;;16.23;54.03
77303;BME280;66363;49.828;7.856;2022-12-26T09:22:13;100079.69;;;16.10;54.08
77303;BME280;66363;49.828;7.856;2022-12-26T09:24:40;100060.19;;;16.27;53.54
77303;BME280;66363;49.828;7.856;2022-12-26T09:27:06;100065.13;;;16.22;54.31
77303;BME280;66363;49.828;7.856;2022-12-26T09:29:32;100070.81;;;16.83;52.59
77303;BME280;66363;49.828;7.856;2022-12-26T09:31:58;100080.09;;;17.34;51.33
77303;BME280;66363;49.828;7.856;2022-12-26T09:34:23;100103.09;;;17.72;50.01
77303;BME280;66363;49.828;7.856;2022-12-26T09:36:49;100114.56;;;18.00;49.16
77303;BME280;66363;49.828;7.856;2022-12-26T09:39:15;100118.91;;;18.19;49.07
77303;BME280;66363;49.828;7.856;2022-12-26T09:41:51;100131.59;;;18.35;48.41
77303;BME280;66363;49.828;7.856;2022-12-26T09:44:20;100122.41;;;18.45;48.14
77303;BME280;66363;49.828;7.856;2022-12-26T09:46:56;100120.47;;;18.55;48.38
77303;BME280;66363;49.828;7.856;2022-12-26T09:49:29;100108.81;;;18.64;48.09
77303;BME280;66363;49.828;7.856;2022-12-26T09:51:58;100116.41;;;18.69;48.19
77303;BME280;66363;49.828;7.856;2022-12-26T09:54:30;100133.72;;;18.75;48.10
77303;BME280;66363;49.828;7.856;2022-12-26T09:57:00;100118.94;;;18.79;48.30
77303;BME280;66363;49.828;7.856;2022-12-26T09:59:26;100117.78;;;18.81;47.95
77303;BME280;66363;49.828;7.856;2022-12-26T10:01:52;100102.00;;;18.86;47.97
77303;BME280;66363;49.828;7.856;2022-12-26T10:04:22;100074.81;;;18.89;48.11
77303;BME280;66363;49.828;7.856;2022-12-26T10:06:52;100109.28;;;18.94;48.21
77303;BME280;66363;49.828;7.856;2022-12-26T10:09:34;100119.69;;;18.97;47.99
77303;BME280;66363;49.828;7.856;2022-12-26T10:12:14;100124.75;;;19.00;48.13
77303;BME280;66363;49.828;7.856;2022-12-26T10:14:49;100116.34;;;19.03;48.17
77303;BME280;66363;49.828;7.856;2022-12-26T10:17:22;100116.03;;;19.06;48.24
77303;BME280;66363;49.828;7.856;2022-12-26T10:20:02;100105.63;;;19.11;48.36
77303;BME280;66363;49.828;7.856;2022-12-26T10:25:40;100105.50;;;19.21;48.41
77303;BME280;66363;49.828;7.856;2022-12-26T10:28:16;100114.06;;;19.24;48.58
77303;BME280;66363;49.828;7.856;2022-12-26T10:30:42;100116.41;;;19.27;48.60
77303;BME280;66363;49.828;7.856;2022-12-26T10:33:13;100123.31;;;19.30;48.53
77303;BME280;66363;49.828;7.856;2022-12-26T10:35:42;100129.38;;;19.32;48.64
77303;BME280;66363;49.828;7.856;2022-12-26T10:38:11;100130.91;;;19.35;49.00
77303;BME280;66363;49.828;7.856;2022-12-26T10:40:41;100121.50;;;19.39;49.10
77303;BME280;66363;49.828;7.856;2022-12-26T10:43:20;100121.34;;;19.40;49.13
77303;BME280;66363;49.828;7.856;2022-12-26T10:45:54;100118.50;;;19.42;49.33
77303;BME280;66363;49.828;7.856;2022-12-26T10:48:25;100121.69;;;19.45;49.37
77303;BME280;66363;49.828;7.856;2022-12-26T10:50:51;100114.47;;;19.46;49.40
77303;BME280;66363;49.828;7.856;2022-12-26T10:53:17;100131.44;;;19.38;48.93
77303;BME280;66363;49.828;7.856;2022-12-26T10:55:43;100123.78;;;19.09;48.89
77303;BME280;66363;49.828;7.856;2022-12-26T10:58:17;100128.44;;;18.99;48.76
77303;BME280;66363;49.828;7.856;2022-12-26T11:00:43;100128.59;;;18.97;48.94
77303;BME280;66363;49.828;7.856;2022-12-26T11:03:11;100138.56;;;19.05;48.80
77303;BME280;66363;49.828;7.856;2022-12-26T11:05:39;100113.53;;;19.13;49.02
77303;BME280;66363;49.828;7.856;2022-12-26T11:08:08;100112.72;;;19.20;48.44
77303;BME280;66363;49.828;7.856;2022-12-26T11:10:39;100126.34;;;19.27;48.06
77303;BME280;66363;49.828;7.856;2022-12-26T11:13:19;100121.31;;;19.32;48.01
77303;BME280;66363;49.828;7.856;2022-12-26T11:15:47;100117.47;;;19.35;47.77
77303;BME280;66363;49.828;7.856;2022-12-26T11:18:16;100112.59;;;19.38;47.63
77303;BME280;66363;49.828;7.856;2022-12-26T11:20:45;100111.41;;;19.41;47.75
77303;BME280;66363;49.828;7.856;2022-12-26T11:23:26;100113.78;;;19.44;47.45
77303;BME280;66363;49.828;7.856;2022-12-26T11:25:53;100119.84;;;19.46;47.63
77303;BME280;66363;49.828;7.856;2022-12-26T11:28:25;100121.38;;;19.48;47.47
77303;BME280;66363;49.828;7.856;2022-12-26T11:30:51;100121.19;;;19.50;47.34
77303;BME280;66363;49.828;7.856;2022-12-26T11:33:23;100124.56;;;19.52;47.26
77303;BME280;66363;49.828;7.856;2022-12-26T11:35:53;100122.56;;;19.54;47.22
77303;BME280;66363;49.828;7.856;2022-12-26T11:38:22;100116.19;;;19.55;47.03
77303;BME280;66363;49.828;7.856;2022-12-26T11:40:48;100124.25;;;19.55;47.19
77303;BME280;66363;49.828;7.856;2022-12-26T11:43:22;100131.31;;;19.56;47.08
77303;BME280;66363;49.828;7.856;2022-12-26T11:45:50;100133.84;;;19.57;47.07
77303;BME280;66363;49.828;7.856;2022-12-26T11:48:20;100133.00;;;19.57;46.94
77303;BME280;66363;49.828;7.856;2022-12-26T11:50:47;100133.84;;;19.57;47.09
77303;BME280;66363;49.828;7.856;2022-12-26T11:53:16;100129.97;;;19.60;47.27
77303;BME280;66363;49.828;7.856;2022-12-26T11:55:42;100121.06;;;19.59;46.83
77303;BME280;66363;49.828;7.856;2022-12-26T11:58:16;100117.38;;;19.60;46.87
77303;BME280;66363;49.828;7.856;2022-12-26T12:01:04;100110.97;;;19.61;46.88
77303;BME280;66363;49.828;7.856;2022-12-26T12:03:32;100110.97;;;19.61;46.73
77303;BME280;66363;49.828;7.856;2022-12-26T12:06:02;100109.97;;;19.62;46.70
77303;BME280;66363;49.828;7.856;2022-12-26T12:08:41;100117.03;;;19.63;46.75
77303;BME280;66363;49.828;7.856;2022-12-26T12:11:23;100113.34;;;19.64;46.60
77303;BME280;66363;49.828;7.856;2022-12-26T12:14:09;100106.09;;;19.65;46.48
77303;BME280;66363;49.828;7.856;2022-12-26T12:16:47;100107.78;;;19.66;46.61
77303;BME280;66363;49.828;7.856;2022-12-26T12:19:34;100101.56;;;19.65;46.60
77303;BME280;66363;49.828;7.856;2022-12-26T12:22:14;100103.25;;;19.67;46.49
77303;BME280;66363;49.828;7.856;2022-12-26T12:24:58;100091.47;;;19.68;46.42
77303;BME280;66363;49.828;7.856;2022-12-26T12:27:28;100099.53;;;19.68;46.56
77303;BME280;66363;49.828;7.856;2022-12-26T12:30:18;100113.69;;;19.70;46.46
77303;BME280;66363;49.828;7.856;2022-12-26T12:32:58;100104.59;;;19.71;46.32
77303;BME280;66363;49.828;7.856;2022-12-26T12:35:37;100106.28;;;19.72;46.46
77303;BME280;66363;49.828;7.856;2022-12-26T12:38:20;100098.22;;;19.72;46.39
77303;BME280;66363;49.828;7.856;2022-12-26T12:40:56;100103.59;;;19.72;46.34
77303;BME280;66363;49.828;7.856;2022-12-26T12:43:30;100107.97;;;19.73;46.35
77303;BME280;66363;49.828;7.856;2022-12-26T12:46:04;100104.44;;;19.72;46.29
77303;BME280;66363;49.828;7.856;2022-12-26T12:48:49;100112.34;;;19.74;46.32
77303;BME280;66363;49.828;7.856;2022-12-26T12:51:25;100117.72;;;19.74;46.11
77303;BME280;66363;49.828;7.856;2022-12-26T12:54:03;100103.06;;;19.76;46.23
77303;BME280;66363;49.828;7.856;2022-12-26T12:56:39;100100.38;;;19.76;46.20
77303;BME280;66363;49.828;7.856;2022-12-26T12:59:19;100101.22;;;19.77;45.97
77303;BME280;66363;49.828;7.856;2022-12-26T13:01:53;100096.50;;;19.79;46.34
77303;BME280;66363;49.828;7.856;2022-12-26T13:04:25;100097.34;;;19.79;46.16
77303;BME280;66363;49.828;7.856;2022-12-26T13:06:54;100100.88;;;19.80;46.00
77303;BME280;66363;49.828;7.856;2022-12-26T13:09:24;100096.34;;;19.80;46.05
77303;BME280;66363;49.828;7.856;2022-12-26T13:11:54;100111.50;;;19.81;46.04